sensor_id;sensor_type;location;lat;lon;timestamp;temperature;humidity
20856;DHT22;63058;49.424;8.420;2023-08-06T00:00:09;21.70;87.50
20856;DHT22;63058;49.424;8.420;2023-08-06T00:02:34;21.80;87.40
20856;DHT22;63058;49.424;8.420;2023-08-06T00:05:00;21.70;87.30
20856;DHT22;63058;49.424;8.420;2023-08-06T00:07:26;21.70;88.00
20856;DHT22;63058;49.424;8.420;2023-08-06T00:09:52;21.70;87.30
20856;DHT22;63058;49.424;8.420;2023-08-06T00:12:17;21.70;87.30
20856;DHT22;63058;49.424;8.420;2023-08-06T00:14:43;21.70;87.30
20856;DHT22;63058;49.424;8.420;2023-08-06T00:17:09;21.70;87.20
20856;DHT22;63058;49.424;8.420;2023-08-06T00:19:35;21.70;87.10
20856;DHT22;63058;49.424;8.420;2023-08-06T00:22:00;21.70;87.30
20856;DHT22;63058;49.424;8.420;2023-08-06T00:24:27;21.70;87.40
20856;DHT22;63058;49.424;8.420;2023-08-06T00:26:53;21.70;87.40
20856;DHT22;63058;49.424;8.420;2023-08-06T00:29:18;21.70;87.30
20856;DHT22;63058;49.424;8.420;2023-08-06T00:31:44;21.70;87.30
20856;DHT22;63058;49.424;8.420;2023-08-06T00:34:10;21.70;86.90
20856;DHT22;63058;49.424;8.420;2023-08-06T00:36:35;21.60;86.80
20856;DHT22;63058;49.424;8.420;2023-08-06T00:39:01;21.60;86.80
20856;DHT22;63058;49.424;8.420;2023-08-06T00:41:27;21.60;86.70
20856;DHT22;63058;49.424;8.420;2023-08-06T00:43:53;21.50;86.50
20856;DHT22;63058;49.424;8.420;2023-08-06T00:46:19;21.50;86.50
20856;DHT22;63058;49.424;8.420;2023-08-06T00:48:44;21.40;86.20
20856;DHT22;63058;49.424;8.420;2023-08-06T00:51:11;21.30;86.00
20856;DHT22;63058;49.424;8.420;2023-08-06T00:53:38;21.20;85.80
20856;DHT22;63058;49.424;8.420;2023-08-06T00:56:04;21.10;86.00
20856;DHT22;63058;49.424;8.420;2023-08-06T00:58:30;21.00;86.40
20856;DHT22;63058;49.424;8.420;2023-08-06T01:00:56;20.90;86.60
20856;DHT22;63058;49.424;8.420;2023-08-06T01:03:21;20.90;86.90
20856;DHT22;63058;49.424;8.420;2023-08-06T01:05:47;20.90;87.10
20856;DHT22;63058;49.424;8.420;2023-08-06T01:08:29;20.90;87.30
20856;DHT22;63058;49.424;8.420;2023-08-06T01:13:45;20.90;87.30
20856;DHT22;63058;49.424;8.420;2023-08-06T01:16:15;20.90;87.10
20856;DHT22;63058;49.424;8.420;2023-08-06T01:18:42;20.90;87.40
20856;DHT22;63058;49.424;8.420;2023-08-06T01:21:13;20.90;87.40
20856;DHT22;63058;49.424;8.420;2023-08-06T01:23:39;20.90;87.40
20856;DHT22;63058;49.424;8.420;2023-08-06T01:26:19;21.00;87.60
20856;DHT22;63058;49.424;8.420;2023-08-06T01:31:24;21.00;87.10
20856;DHT22;63058;49.424;8.420;2023-08-06T01:33:51;21.00;87.10
20856;DHT22;63058;49.424;8.420;2023-08-06T01:36:19;21.00;87.10
20856;DHT22;63058;49.424;8.420;2023-08-06T01:38:46;20.90;86.90
20856;DHT22;63058;49.424;8.420;2023-08-06T01:41:11;20.90;86.90
20856;DHT22;63058;49.424;8.420;2023-08-06T01:43:37;20.90;87.10
20856;DHT22;63058;49.424;8.420;2023-08-06T01:46:03;20.90;87.10
20856;DHT22;63058;49.424;8.420;2023-08-06T01:48:28;20.80;87.10
20856;DHT22;63058;49.424;8.420;2023-08-06T01:50:54;20.80;87.30
20856;DHT22;63058;49.424;8.420;2023-08-06T01:53:19;20.80;87.30
20856;DHT22;63058;49.424;8.420;2023-08-06T01:55:49;20.70;87.30
20856;DHT22;63058;49.424;8.420;2023-08-06T01:58:15;20.70;87.20
20856;DHT22;63058;49.424;8.420;2023-08-06T02:00:41;20.60;87.70
20856;DHT22;63058;49.424;8.420;2023-08-06T02:03:06;20.60;87.90
20856;DHT22;63058;49.424;8.420;2023-08-06T02:05:32;20.70;87.80
20856;DHT22;63058;49.424;8.420;2023-08-06T02:07:58;20.60;87.70
20856;DHT22;63058;49.424;8.420;2023-08-06T02:10:23;20.60;87.70
20856;DHT22;63058;49.424;8.420;2023-08-06T02:12:49;20.60;88.60
20856;DHT22;63058;49.424;8.420;2023-08-06T02:15:15;20.60;87.90
20856;DHT22;63058;49.424;8.420;2023-08-06T02:17:40;20.60;87.80
20856;DHT22;63058;49.424;8.420;2023-08-06T02:20:06;20.50;87.60
20856;DHT22;63058;49.424;8.420;2023-08-06T02:22:32;20.50;87.60
20856;DHT22;63058;49.424;8.420;2023-08-06T02:24:58;20.50;87.60
20856;DHT22;63058;49.424;8.420;2023-08-06T02:27:24;20.40;87.50
20856;DHT22;63058;49.424;8.420;2023-08-06T02:29:50;20.40;87.60
20856;DHT22;63058;49.424;8.420;2023-08-06T02:32:15;20.30;87.60
20856;DHT22;63058;49.424;8.420;2023-08-06T02:34:41;20.20;87.50
20856;DHT22;63058;49.424;8.420;2023-08-06T02:37:07;20.20;87.70
20856;DHT22;63058;49.424;8.420;2023-08-06T02:39:32;20.10;87.50
20856;DHT22;63058;49.424;8.420;2023-08-06T02:41:59;20.00;88.40
20856;DHT22;63058;49.424;8.420;2023-08-06T02:44:27;19.80;87.60
20856;DHT22;63058;49.424;8.420;2023-08-06T02:46:53;19.80;87.90
20856;DHT22;63058;49.424;8.420;2023-08-06T02:49:19;19.70;88.00
20856;DHT22;63058;49.424;8.420;2023-08-06T02:51:47;19.60;88.20
20856;DHT22;63058;49.424;8.420;2023-08-06T02:54:13;19.50;88.30
20856;DHT22;63058;49.424;8.420;2023-08-06T02:56:39;19.40;88.40
20856;DHT22;63058;49.424;8.420;2023-08-06T02:59:08;19.30;88.70
20856;DHT22;63058;49.424;8.420;2023-08-06T03:01:33;19.20;89.10
20856;DHT22;63058;49.424;8.420;2023-08-06T03:03:59;19.20;89.40
20856;DHT22;63058;49.424;8.420;2023-08-06T03:06:24;19.10;89.60
20856;DHT22;63058;49.424;8.420;2023-08-06T03:08:50;19.10;89.90
20856;DHT22;63058;49.424;8.420;2023-08-06T03:11:16;19.10;90.00
20856;DHT22;63058;49.424;8.420;2023-08-06T03:13:41;19.10;90.20
20856;DHT22;63058;49.424;8.420;2023-08-06T03:16:07;19.10;90.40
20856;DHT22;63058;49.424;8.420;2023-08-06T03:18:32;19.10;90.50
20856;DHT22;63058;49.424;8.420;2023-08-06T03:20:58;19.10;90.90
20856;DHT22;63058;49.424;8.420;2023-08-06T03:23:24;19.30;90.70
20856;DHT22;63058;49.424;8.420;2023-08-06T03:25:49;19.30;90.70
20856;DHT22;63058;49.424;8.420;2023-08-06T03:28:15;19.40;90.60
20856;DHT22;63058;49.424;8.420;2023-08-06T03:30:41;19.40;90.60
20856;DHT22;63058;49.424;8.420;2023-08-06T03:33:06;19.50;90.60
20856;DHT22;63058;49.424;8.420;2023-08-06T03:35:32;19.50;90.60
20856;DHT22;63058;49.424;8.420;2023-08-06T03:37:57;19.50;90.60
20856;DHT22;63058;49.424;8.420;2023-08-06T03:40:23;19.60;90.60
20856;DHT22;63058;49.424;8.420;2023-08-06T03:42:49;19.60;90.70
20856;DHT22;63058;49.424;8.420;2023-08-06T03:45:14;19.50;90.60
20856;DHT22;63058;49.424;8.420;2023-08-06T03:47:40;19.60;90.60
20856;DHT22;63058;49.424;8.420;2023-08-06T03:50:06;19.60;90.60
20856;DHT22;63058;49.424;8.420;2023-08-06T03:52:32;19.60;90.70
20856;DHT22;63058;49.424;8.420;2023-08-06T03:54:58;19.70;90.60
20856;DHT22;63058;49.424;8.420;2023-08-06T03:57:23;19.70;90.60
20856;DHT22;63058;49.424;8.420;2023-08-06T03:59:49;19.70;90.60
20856;DHT22;63058;49.424;8.420;2023-08-06T04:02:14;19.80;90.70
20856;DHT22;63058;49.424;8.420;2023-08-06T04:04:40;19.70;90.70
20856;DHT22;63058;49.424;8.420;2023-08-06T04:07:06;19.70;90.70
20856;DHT22;63058;49.424;8.420;2023-08-06T04:09:31;19.70;90.80
20856;DHT22;63058;49.424;8.420;2023-08-06T04:11:57;19.70;90.80
20856;DHT22;63058;49.424;8.420;2023-08-06T04:14:25;19.70;90.80
20856;DHT22;63058;49.424;8.420;2023-08-06T04:16:51;19.80;90.80
20856;DHT22;63058;49.424;8.420;2023-08-06T04:19:17;19.70;90.70
20856;DHT22;63058;49.424;8.420;2023-08-06T04:21:42;19.70;90.80
20856;DHT22;63058;49.424;8.420;2023-08-06T04:24:08;19.70;91.20
20856;DHT22;63058;49.424;8.420;2023-08-06T04:26:33;19.70;90.80
20856;DHT22;63058;49.424;8.420;2023-08-06T04:28:59;19.70;90.80
20856;DHT22;63058;49.424;8.420;2023-08-06T04:31:25;19.70;90.80
20856;DHT22;63058;49.424;8.420;2023-08-06T04:33:50;19.60;90.80
20856;DHT22;63058;49.424;8.420;2023-08-06T04:36:16;19.60;90.80
20856;DHT22;63058;49.424;8.420;2023-08-06T04:38:41;19.50;90.90
20856;DHT22;63058;49.424;8.420;2023-08-06T04:41:10;19.50;91.00
20856;DHT22;63058;49.424;8.420;2023-08-06T04:43:37;19.50;91.00
20856;DHT22;63058;49.424;8.420;2023-08-06T04:46:02;19.50;91.00
20856;DHT22;63058;49.424;8.420;2023-08-06T04:48:28;19.50;91.10
20856;DHT22;63058;49.424;8.420;2023-08-06T04:50:54;19.50;91.10
20856;DHT22;63058;49.424;8.420;2023-08-06T04:53:20;19.50;91.00
20856;DHT22;63058;49.424;8.420;2023-08-06T04:55:45;19.40;90.90
20856;DHT22;63058;49.424;8.420;2023-08-06T04:58:12;19.40;91.30
20856;DHT22;63058;49.424;8.420;2023-08-06T05:00:37;19.40;91.00
20856;DHT22;63058;49.424;8.420;2023-08-06T05:03:03;19.30;91.10
20856;DHT22;63058;49.424;8.420;2023-08-06T05:05:29;19.30;91.10
20856;DHT22;63058;49.424;8.420;2023-08-06T05:07:56;19.30;91.00
20856;DHT22;63058;49.424;8.420;2023-08-06T05:10:25;19.30;91.10
20856;DHT22;63058;49.424;8.420;2023-08-06T05:12:51;19.30;91.10
20856;DHT22;63058;49.424;8.420;2023-08-06T05:15:16;19.30;91.20
20856;DHT22;63058;49.424;8.420;2023-08-06T05:17:42;19.30;91.20
20856;DHT22;63058;49.424;8.420;2023-08-06T05:20:08;19.30;91.40
20856;DHT22;63058;49.424;8.420;2023-08-06T05:22:33;19.40;91.50
20856;DHT22;63058;49.424;8.420;2023-08-06T05:24:59;19.40;91.40
20856;DHT22;63058;49.424;8.420;2023-08-06T05:27:25;19.40;91.40
20856;DHT22;63058;49.424;8.420;2023-08-06T05:29:55;19.40;91.50
20856;DHT22;63058;49.424;8.420;2023-08-06T05:32:21;19.50;91.50
20856;DHT22;63058;49.424;8.420;2023-08-06T05:34:47;19.50;91.50
20856;DHT22;63058;49.424;8.420;2023-08-06T05:37:13;19.50;91.40
20856;DHT22;63058;49.424;8.420;2023-08-06T05:39:38;19.60;91.40
20856;DHT22;63058;49.424;8.420;2023-08-06T05:42:04;19.60;91.50
20856;DHT22;63058;49.424;8.420;2023-08-06T05:44:30;19.60;91.60
20856;DHT22;63058;49.424;8.420;2023-08-06T05:46:55;19.60;91.50
20856;DHT22;63058;49.424;8.420;2023-08-06T05:49:21;19.60;91.80
20856;DHT22;63058;49.424;8.420;2023-08-06T05:51:47;19.60;91.50
20856;DHT22;63058;49.424;8.420;2023-08-06T05:54:12;19.60;91.40
20856;DHT22;63058;49.424;8.420;2023-08-06T05:56:38;19.60;91.30
20856;DHT22;63058;49.424;8.420;2023-08-06T05:59:04;19.40;91.30
20856;DHT22;63058;49.424;8.420;2023-08-06T06:01:29;19.40;91.40
20856;DHT22;63058;49.424;8.420;2023-08-06T06:03:55;19.20;91.40
20856;DHT22;63058;49.424;8.420;2023-08-06T06:06:20;19.10;91.70
20856;DHT22;63058;49.424;8.420;2023-08-06T06:08:46;19.00;92.00
20856;DHT22;63058;49.424;8.420;2023-08-06T06:11:12;18.90;92.20
20856;DHT22;63058;49.424;8.420;2023-08-06T06:13:38;18.80;92.30
20856;DHT22;63058;49.424;8.420;2023-08-06T06:16:03;18.80;92.50
20856;DHT22;63058;49.424;8.420;2023-08-06T06:18:30;18.80;92.70
20856;DHT22;63058;49.424;8.420;2023-08-06T06:20:56;18.70;92.80
20856;DHT22;63058;49.424;8.420;2023-08-06T06:23:22;18.70;92.90
20856;DHT22;63058;49.424;8.420;2023-08-06T06:25:49;18.70;93.00
20856;DHT22;63058;49.424;8.420;2023-08-06T06:28:17;18.70;93.20
20856;DHT22;63058;49.424;8.420;2023-08-06T06:30:42;18.80;93.30
20856;DHT22;63058;49.424;8.420;2023-08-06T06:33:08;18.80;93.40
20856;DHT22;63058;49.424;8.420;2023-08-06T06:35:34;18.80;93.40
20856;DHT22;63058;49.424;8.420;2023-08-06T06:37:59;18.90;93.50
20856;DHT22;63058;49.424;8.420;2023-08-06T06:40:26;18.90;93.60
20856;DHT22;63058;49.424;8.420;2023-08-06T06:42:51;18.90;93.60
20856;DHT22;63058;49.424;8.420;2023-08-06T06:45:17;19.00;93.70
20856;DHT22;63058;49.424;8.420;2023-08-06T06:47:43;19.00;93.70
20856;DHT22;63058;49.424;8.420;2023-08-06T06:50:09;19.10;93.60
20856;DHT22;63058;49.424;8.420;2023-08-06T06:52:35;19.20;93.70
20856;DHT22;63058;49.424;8.420;2023-08-06T06:55:00;19.20;93.80
20856;DHT22;63058;49.424;8.420;2023-08-06T06:57:26;19.30;93.90
20856;DHT22;63058;49.424;8.420;2023-08-06T06:59:52;19.40;93.90
20856;DHT22;63058;49.424;8.420;2023-08-06T07:02:17;19.40;93.80
20856;DHT22;63058;49.424;8.420;2023-08-06T07:04:43;19.40;93.70
20856;DHT22;63058;49.424;8.420;2023-08-06T07:07:09;19.50;93.80
20856;DHT22;63058;49.424;8.420;2023-08-06T07:09:35;19.60;93.80
20856;DHT22;63058;49.424;8.420;2023-08-06T07:12:01;19.60;93.80
20856;DHT22;63058;49.424;8.420;2023-08-06T07:14:28;19.60;93.80
20856;DHT22;63058;49.424;8.420;2023-08-06T07:16:53;19.70;93.70
20856;DHT22;63058;49.424;8.420;2023-08-06T07:19:19;19.60;93.50
20856;DHT22;63058;49.424;8.420;2023-08-06T07:21:45;19.60;93.50
20856;DHT22;63058;49.424;8.420;2023-08-06T07:24:11;19.70;93.60
20856;DHT22;63058;49.424;8.420;2023-08-06T07:26:37;19.70;93.60
20856;DHT22;63058;49.424;8.420;2023-08-06T07:29:03;19.70;93.70
20856;DHT22;63058;49.424;8.420;2023-08-06T07:31:29;19.70;93.90
20856;DHT22;63058;49.424;8.420;2023-08-06T07:33:54;19.80;93.90
20856;DHT22;63058;49.424;8.420;2023-08-06T07:36:20;19.80;93.70
20856;DHT22;63058;49.424;8.420;2023-08-06T07:38:46;19.80;93.70
20856;DHT22;63058;49.424;8.420;2023-08-06T07:41:11;19.80;93.40
20856;DHT22;63058;49.424;8.420;2023-08-06T07:43:37;19.80;93.40
20856;DHT22;63058;49.424;8.420;2023-08-06T07:46:03;19.70;93.50
20856;DHT22;63058;49.424;8.420;2023-08-06T07:48:29;19.70;93.50
20856;DHT22;63058;49.424;8.420;2023-08-06T07:50:55;19.70;93.60
20856;DHT22;63058;49.424;8.420;2023-08-06T07:53:21;19.70;93.90
20856;DHT22;63058;49.424;8.420;2023-08-06T07:55:51;19.70;94.20
20856;DHT22;63058;49.424;8.420;2023-08-06T07:58:18;19.70;94.20
20856;DHT22;63058;49.424;8.420;2023-08-06T08:00:44;19.80;94.30
20856;DHT22;63058;49.424;8.420;2023-08-06T08:03:11;19.90;94.30
20856;DHT22;63058;49.424;8.420;2023-08-06T08:05:39;20.00;94.40
20856;DHT22;63058;49.424;8.420;2023-08-06T08:08:04;20.00;94.60
20856;DHT22;63058;49.424;8.420;2023-08-06T08:10:31;20.10;94.60
20856;DHT22;63058;49.424;8.420;2023-08-06T08:12:57;20.20;94.60
20856;DHT22;63058;49.424;8.420;2023-08-06T08:15:22;20.30;94.20
20856;DHT22;63058;49.424;8.420;2023-08-06T08:17:48;20.30;93.90
20856;DHT22;63058;49.424;8.420;2023-08-06T08:20:16;20.40;93.60
20856;DHT22;63058;49.424;8.420;2023-08-06T08:22:41;20.30;93.20
20856;DHT22;63058;49.424;8.420;2023-08-06T08:25:07;20.30;93.40
20856;DHT22;63058;49.424;8.420;2023-08-06T08:27:33;20.20;93.50
20856;DHT22;63058;49.424;8.420;2023-08-06T08:29:58;20.20;93.70
20856;DHT22;63058;49.424;8.420;2023-08-06T08:32:24;20.20;94.20
20856;DHT22;63058;49.424;8.420;2023-08-06T08:34:49;20.20;94.40
20856;DHT22;63058;49.424;8.420;2023-08-06T08:37:15;20.30;94.60
20856;DHT22;63058;49.424;8.420;2023-08-06T08:39:41;20.30;94.40
20856;DHT22;63058;49.424;8.420;2023-08-06T08:42:06;20.40;94.70
20856;DHT22;63058;49.424;8.420;2023-08-06T08:44:32;20.60;94.80
20856;DHT22;63058;49.424;8.420;2023-08-06T08:46:59;20.70;94.50
20856;DHT22;63058;49.424;8.420;2023-08-06T08:49:27;20.80;94.60
20856;DHT22;63058;49.424;8.420;2023-08-06T08:51:54;20.90;94.70
20856;DHT22;63058;49.424;8.420;2023-08-06T08:54:23;21.10;95.00
20856;DHT22;63058;49.424;8.420;2023-08-06T08:56:48;21.30;94.30
20856;DHT22;63058;49.424;8.420;2023-08-06T08:59:14;21.40;94.10
20856;DHT22;63058;49.424;8.420;2023-08-06T09:01:40;21.50;93.90
20856;DHT22;63058;49.424;8.420;2023-08-06T09:04:07;21.50;93.00
20856;DHT22;63058;49.424;8.420;2023-08-06T09:06:36;21.40;92.50
20856;DHT22;63058;49.424;8.420;2023-08-06T09:09:12;21.30;92.60
20856;DHT22;63058;49.424;8.420;2023-08-06T09:11:43;21.10;92.50
20856;DHT22;63058;49.424;8.420;2023-08-06T09:14:09;20.90;92.70
20856;DHT22;63058;49.424;8.420;2023-08-06T09:16:38;20.70;93.10
20856;DHT22;63058;49.424;8.420;2023-08-06T09:19:13;20.60;93.50
20856;DHT22;63058;49.424;8.420;2023-08-06T09:21:41;20.60;93.80
20856;DHT22;63058;49.424;8.420;2023-08-06T09:24:12;20.70;94.10
20856;DHT22;63058;49.424;8.420;2023-08-06T09:26:41;20.80;93.90
20856;DHT22;63058;49.424;8.420;2023-08-06T09:29:08;20.90;93.80
20856;DHT22;63058;49.424;8.420;2023-08-06T09:34:31;20.90;92.30
20856;DHT22;63058;49.424;8.420;2023-08-06T09:36:57;20.90;92.20
20856;DHT22;63058;49.424;8.420;2023-08-06T09:39:30;20.90;91.70
20856;DHT22;63058;49.424;8.420;2023-08-06T09:41:57;20.80;91.40
20856;DHT22;63058;49.424;8.420;2023-08-06T09:44:24;20.70;91.30
20856;DHT22;63058;49.424;8.420;2023-08-06T09:46:58;20.60;91.60
20856;DHT22;63058;49.424;8.420;2023-08-06T09:49:39;20.60;91.80
20856;DHT22;63058;49.424;8.420;2023-08-06T09:52:12;20.60;91.50
20856;DHT22;63058;49.424;8.420;2023-08-06T09:54:38;20.60;91.90
20856;DHT22;63058;49.424;8.420;2023-08-06T09:57:05;20.60;92.00
20856;DHT22;63058;49.424;8.420;2023-08-06T09:59:32;20.70;91.50
20856;DHT22;63058;49.424;8.420;2023-08-06T10:01:58;20.70;91.50
20856;DHT22;63058;49.424;8.420;2023-08-06T10:04:24;20.70;91.30
20856;DHT22;63058;49.424;8.420;2023-08-06T10:06:50;20.70;91.30
20856;DHT22;63058;49.424;8.420;2023-08-06T10:09:16;20.70;91.30
20856;DHT22;63058;49.424;8.420;2023-08-06T10:11:50;20.70;91.20
20856;DHT22;63058;49.424;8.420;2023-08-06T10:14:29;20.70;90.80
20856;DHT22;63058;49.424;8.420;2023-08-06T10:16:57;20.70;90.00
20856;DHT22;63058;49.424;8.420;2023-08-06T10:19:23;20.60;90.80
20856;DHT22;63058;49.424;8.420;2023-08-06T10:22:17;20.60;90.80
20856;DHT22;63058;49.424;8.420;2023-08-06T10:24:53;20.50;90.70
20856;DHT22;63058;49.424;8.420;2023-08-06T10:30:30;20.30;90.80
20856;DHT22;63058;49.424;8.420;2023-08-06T10:33:01;20.10;90.90
20856;DHT22;63058;49.424;8.420;2023-08-06T10:35:35;20.00;91.00
20856;DHT22;63058;49.424;8.420;2023-08-06T10:38:09;19.90;91.20
20856;DHT22;63058;49.424;8.420;2023-08-06T10:40:39;19.90;91.30
20856;DHT22;63058;49.424;8.420;2023-08-06T10:43:05;19.80;91.50
20856;DHT22;63058;49.424;8.420;2023-08-06T10:45:37;19.80;91.70
20856;DHT22;63058;49.424;8.420;2023-08-06T10:48:04;19.70;91.50
20856;DHT22;63058;49.424;8.420;2023-08-06T10:50:30;19.70;91.50
20856;DHT22;63058;49.424;8.420;2023-08-06T10:52:57;19.70;91.50
20856;DHT22;63058;49.424;8.420;2023-08-06T10:55:27;19.70;91.30
20856;DHT22;63058;49.424;8.420;2023-08-06T10:57:54;19.70;91.00
20856;DHT22;63058;49.424;8.420;2023-08-06T11:00:22;19.70;91.30
20856;DHT22;63058;49.424;8.420;2023-08-06T11:02:49;19.80;91.40
20856;DHT22;63058;49.424;8.420;2023-08-06T11:05:16;19.80;91.30
20856;DHT22;63058;49.424;8.420;2023-08-06T11:07:42;19.90;91.10
20856;DHT22;63058;49.424;8.420;2023-08-06T11:10:10;19.80;91.10
20856;DHT22;63058;49.424;8.420;2023-08-06T11:12:36;19.90;91.20
20856;DHT22;63058;49.424;8.420;2023-08-06T11:15:03;19.90;91.30
20856;DHT22;63058;49.424;8.420;2023-08-06T11:17:30;20.00;90.90
20856;DHT22;63058;49.424;8.420;2023-08-06T11:19:59;20.00;91.00
20856;DHT22;63058;49.424;8.420;2023-08-06T11:22:26;20.10;90.80
20856;DHT22;63058;49.424;8.420;2023-08-06T11:24:53;20.20;91.00
20856;DHT22;63058;49.424;8.420;2023-08-06T11:27:18;20.30;90.80
20856;DHT22;63058;49.424;8.420;2023-08-06T11:29:44;20.40;90.80
20856;DHT22;63058;49.424;8.420;2023-08-06T11:32:10;20.50;90.90
20856;DHT22;63058;49.424;8.420;2023-08-06T11:34:36;20.60;90.60
20856;DHT22;63058;49.424;8.420;2023-08-06T11:37:06;20.70;90.60
20856;DHT22;63058;49.424;8.420;2023-08-06T11:39:36;20.80;90.30
20856;DHT22;63058;49.424;8.420;2023-08-06T11:42:08;20.90;89.30
20856;DHT22;63058;49.424;8.420;2023-08-06T11:44:36;21.00;88.80
20856;DHT22;63058;49.424;8.420;2023-08-06T11:47:04;21.00;89.30
20856;DHT22;63058;49.424;8.420;2023-08-06T11:49:47;21.10;88.50
20856;DHT22;63058;49.424;8.420;2023-08-06T11:52:21;21.10;87.10
20856;DHT22;63058;49.424;8.420;2023-08-06T11:57:29;21.20;86.00
20856;DHT22;63058;49.424;8.420;2023-08-06T12:00:01;21.20;86.50
20856;DHT22;63058;49.424;8.420;2023-08-06T12:02:33;21.20;86.80
20856;DHT22;63058;49.424;8.420;2023-08-06T12:05:29;21.20;86.80
20856;DHT22;63058;49.424;8.420;2023-08-06T12:08:00;21.20;86.40
20856;DHT22;63058;49.424;8.420;2023-08-06T12:10:27;21.10;85.80
20856;DHT22;63058;49.424;8.420;2023-08-06T12:12:53;21.10;86.50
20856;DHT22;63058;49.424;8.420;2023-08-06T12:15:20;21.00;86.40
20856;DHT22;63058;49.424;8.420;2023-08-06T12:17:45;21.00;86.70
20856;DHT22;63058;49.424;8.420;2023-08-06T12:20:11;20.90;86.60
20856;DHT22;63058;49.424;8.420;2023-08-06T12:22:38;20.90;86.90
20856;DHT22;63058;49.424;8.420;2023-08-06T12:25:07;20.80;86.40
20856;DHT22;63058;49.424;8.420;2023-08-06T12:27:34;20.80;86.20
20856;DHT22;63058;49.424;8.420;2023-08-06T12:30:00;20.70;86.60
20856;DHT22;63058;49.424;8.420;2023-08-06T12:32:26;20.70;86.50
20856;DHT22;63058;49.424;8.420;2023-08-06T12:34:51;20.70;86.90
20856;DHT22;63058;49.424;8.420;2023-08-06T12:37:17;20.70;86.40
20856;DHT22;63058;49.424;8.420;2023-08-06T12:39:43;20.70;86.90
20856;DHT22;63058;49.424;8.420;2023-08-06T12:42:09;20.70;86.90
20856;DHT22;63058;49.424;8.420;2023-08-06T12:44:35;20.60;86.00
20856;DHT22;63058;49.424;8.420;2023-08-06T12:47:01;20.60;86.50
20856;DHT22;63058;49.424;8.420;2023-08-06T12:49:27;20.60;87.20
20856;DHT22;63058;49.424;8.420;2023-08-06T12:51:54;20.60;87.40
20856;DHT22;63058;49.424;8.420;2023-08-06T12:54:22;20.60;87.40
20856;DHT22;63058;49.424;8.420;2023-08-06T12:56:48;20.60;87.60
20856;DHT22;63058;49.424;8.420;2023-08-06T12:59:15;20.60;87.70
20856;DHT22;63058;49.424;8.420;2023-08-06T13:01:41;20.60;87.10
20856;DHT22;63058;49.424;8.420;2023-08-06T13:04:07;20.70;87.40
20856;DHT22;63058;49.424;8.420;2023-08-06T13:06:33;20.70;87.30
20856;DHT22;63058;49.424;8.420;2023-08-06T13:09:11;20.70;87.00
20856;DHT22;63058;49.424;8.420;2023-08-06T13:11:38;20.80;86.50
20856;DHT22;63058;49.424;8.420;2023-08-06T13:14:09;20.80;86.80
20856;DHT22;63058;49.424;8.420;2023-08-06T13:16:40;20.80;86.40
20856;DHT22;63058;49.424;8.420;2023-08-06T13:19:06;20.80;86.50
20856;DHT22;63058;49.424;8.420;2023-08-06T13:22:00;20.80;86.40
20856;DHT22;63058;49.424;8.420;2023-08-06T13:24:27;20.80;85.50
20856;DHT22;63058;49.424;8.420;2023-08-06T13:26:53;20.70;86.10
20856;DHT22;63058;49.424;8.420;2023-08-06T13:29:19;20.70;85.80
20856;DHT22;63058;49.424;8.420;2023-08-06T13:31:44;20.60;85.70
20856;DHT22;63058;49.424;8.420;2023-08-06T13:34:10;20.60;85.80
20856;DHT22;63058;49.424;8.420;2023-08-06T13:36:35;20.50;86.00
20856;DHT22;63058;49.424;8.420;2023-08-06T13:39:01;20.50;86.10
20856;DHT22;63058;49.424;8.420;2023-08-06T13:41:28;20.50;86.30
20856;DHT22;63058;49.424;8.420;2023-08-06T13:43:54;20.40;86.10
20856;DHT22;63058;49.424;8.420;2023-08-06T13:46:20;20.30;86.00
20856;DHT22;63058;49.424;8.420;2023-08-06T13:48:46;20.40;86.20
20856;DHT22;63058;49.424;8.420;2023-08-06T13:51:12;20.30;85.60
20856;DHT22;63058;49.424;8.420;2023-08-06T13:53:39;20.30;86.30
20856;DHT22;63058;49.424;8.420;2023-08-06T13:56:05;20.30;86.20
20856;DHT22;63058;49.424;8.420;2023-08-06T13:58:32;20.30;86.40
20856;DHT22;63058;49.424;8.420;2023-08-06T14:00:57;20.30;86.10
20856;DHT22;63058;49.424;8.420;2023-08-06T14:03:23;20.30;86.60
20856;DHT22;63058;49.424;8.420;2023-08-06T14:05:49;20.30;86.40
20856;DHT22;63058;49.424;8.420;2023-08-06T14:08:15;20.40;86.60
20856;DHT22;63058;49.424;8.420;2023-08-06T14:10:44;20.40;86.00
20856;DHT22;63058;49.424;8.420;2023-08-06T14:13:09;20.40;86.30
20856;DHT22;63058;49.424;8.420;2023-08-06T14:15:35;20.30;86.10
20856;DHT22;63058;49.424;8.420;2023-08-06T14:18:02;20.30;86.00
20856;DHT22;63058;49.424;8.420;2023-08-06T14:20:28;20.40;86.10
20856;DHT22;63058;49.424;8.420;2023-08-06T14:22:54;20.40;86.10
20856;DHT22;63058;49.424;8.420;2023-08-06T14:25:19;20.30;86.50
20856;DHT22;63058;49.424;8.420;2023-08-06T14:27:45;20.40;86.60
20856;DHT22;63058;49.424;8.420;2023-08-06T14:30:11;20.40;86.60
20856;DHT22;63058;49.424;8.420;2023-08-06T14:32:37;20.40;86.80
20856;DHT22;63058;49.424;8.420;2023-08-06T14:35:03;20.40;86.90
20856;DHT22;63058;49.424;8.420;2023-08-06T14:37:28;20.40;87.10
20856;DHT22;63058;49.424;8.420;2023-08-06T14:39:54;20.40;87.10
20856;DHT22;63058;49.424;8.420;2023-08-06T14:42:20;20.50;87.20
20856;DHT22;63058;49.424;8.420;2023-08-06T14:44:46;20.50;87.40
20856;DHT22;63058;49.424;8.420;2023-08-06T14:47:11;20.60;87.40
20856;DHT22;63058;49.424;8.420;2023-08-06T14:49:38;20.60;87.20
20856;DHT22;63058;49.424;8.420;2023-08-06T14:52:04;20.70;87.40
20856;DHT22;63058;49.424;8.420;2023-08-06T14:54:29;20.70;87.20
20856;DHT22;63058;49.424;8.420;2023-08-06T14:56:56;20.80;86.50
20856;DHT22;63058;49.424;8.420;2023-08-06T14:59:22;20.80;86.60
20856;DHT22;63058;49.424;8.420;2023-08-06T15:01:47;20.80;86.60
20856;DHT22;63058;49.424;8.420;2023-08-06T15:04:13;20.70;86.10
20856;DHT22;63058;49.424;8.420;2023-08-06T15:06:39;20.60;85.50
20856;DHT22;63058;49.424;8.420;2023-08-06T15:09:04;20.40;85.50
20856;DHT22;63058;49.424;8.420;2023-08-06T15:11:30;20.20;86.00
20856;DHT22;63058;49.424;8.420;2023-08-06T15:13:56;19.90;86.70
20856;DHT22;63058;49.424;8.420;2023-08-06T15:16:21;19.70;87.40
20856;DHT22;63058;49.424;8.420;2023-08-06T15:18:47;19.50;88.30
20856;DHT22;63058;49.424;8.420;2023-08-06T15:21:14;19.30;89.30
20856;DHT22;63058;49.424;8.420;2023-08-06T15:23:40;19.10;90.10
20856;DHT22;63058;49.424;8.420;2023-08-06T15:26:05;19.00;90.40
20856;DHT22;63058;49.424;8.420;2023-08-06T15:28:31;18.90;90.70
20856;DHT22;63058;49.424;8.420;2023-08-06T15:30:56;18.90;90.90
20856;DHT22;63058;49.424;8.420;2023-08-06T15:33:22;18.90;91.00
20856;DHT22;63058;49.424;8.420;2023-08-06T15:35:48;18.80;91.00
20856;DHT22;63058;49.424;8.420;2023-08-06T15:38:14;18.80;90.90
20856;DHT22;63058;49.424;8.420;2023-08-06T15:40:39;18.80;91.10